Time;durP1;ratioP1;P1;durP2;ratioP2;P2;SDS_P1;SDS_P2;PMS_P1;PMS_P2;Temp;Humidity;BMP_temperature;BMP_pressure;BME280_temperature;BME280_humidity;BME280_pressure;Samples;Min_cycle;Max_cycle;Signal;HPM_P1;HPM_P2
2023/10/27 00:00:59;;;;;;;2.50;1.10;;;;;;;12.38;100.00;94167.34;5036070;28;20219;-70
2023/10/27 00:03:26;;;;;;;3.73;1.43;;;;;;;12.19;100.00;94170.44;5037062;28;20282;-70
2023/10/27 00:05:52;;;;;;;1.43;1.00;;;;;;;12.08;100.00;94170.47;5035360;28;20786;-70
2023/10/27 00:08:19;;;;;;;1.83;1.00;;;;;;;12.21;100.00;94166.50;5036653;28;20624;-70
2023/10/27 00:10:45;;;;;;;1.57;1.10;;;;;;;12.26;100.00;94173.75;5035130;28;20213;-70
2023/10/27 00:13:12;;;;;;;2.00;1.20;;;;;;;12.16;100.00;94178.03;5036251;28;20201;-70
2023/10/27 00:15:38;;;;;;;1.93;1.10;;;;;;;12.28;100.00;94169.00;5035973;28;20225;-70
2023/10/27 00:18:07;;;;;;;2.23;1.20;;;;;;;12.39;100.00;94178.72;5035557;28;20719;-70
2023/10/27 00:20:33;;;;;;;2.30;1.07;;;;;;;12.26;100.00;94177.19;5035390;28;20215;-70
2023/10/27 00:23:00;;;;;;;1.17;0.90;;;;;;;12.20;100.00;94178.09;5035679;28;20216;-70
2023/10/27 00:25:26;;;;;;;2.33;1.00;;;;;;;12.21;100.00;94179.72;5035973;28;20218;-70
2023/10/27 00:27:53;;;;;;;1.77;1.20;;;;;;;12.25;100.00;94172.13;5035050;28;20577;-70
2023/10/27 00:30:20;;;;;;;2.20;1.10;;;;;;;12.16;100.00;94176.97;5035679;28;20676;-70
2023/10/27 00:32:47;;;;;;;7.10;1.30;;;;;;;12.24;100.00;94171.34;5035141;28;20652;-70
2023/10/27 00:35:15;;;;;;;1.87;0.87;;;;;;;12.25;100.00;94170.28;5036434;28;20639;-70
2023/10/27 00:37:42;;;;;;;0.90;0.80;;;;;;;12.27;100.00;94177.97;5035246;28;20225;-70
2023/10/27 00:40:09;;;;;;;0.80;0.70;;;;;;;12.27;100.00;94173.50;5035841;28;20291;-70
2023/10/27 00:42:35;;;;;;;1.13;0.93;;;;;;;12.25;100.00;94174.78;5035412;28;20236;-70
2023/10/27 00:45:02;;;;;;;2.83;1.23;;;;;;;12.17;100.00;94173.31;5035904;28;20225;-70
2023/10/27 00:47:30;;;;;;;1.53;1.00;;;;;;;12.31;100.00;94165.91;5035346;28;20197;-70
2023/10/27 00:49:57;;;;;;;2.07;1.00;;;;;;;12.20;100.00;94166.75;5035729;28;20212;-70
2023/10/27 00:52:26;;;;;;;4.00;1.00;;;;;;;12.34;100.00;94174.13;5035395;28;20225;-70
2023/10/27 00:54:54;;;;;;;2.53;1.00;;;;;;;12.31;100.00;94171.97;5035105;28;20225;-70
2023/10/27 00:57:22;;;;;;;2.00;1.13;;;;;;;12.30;100.00;94175.66;5035693;28;20711;-70
2023/10/27 00:59:50;;;;;;;2.43;1.20;;;;;;;12.18;100.00;94169.63;5035073;28;20211;-70
2023/10/27 01:02:18;;;;;;;7.37;1.30;;;;;;;12.22;100.00;94162.84;5034637;28;20695;-70
2023/10/27 01:04:45;;;;;;;2.00;1.13;;;;;;;12.17;100.00;94165.38;5035275;28;20224;-70
2023/10/27 01:07:12;;;;;;;1.60;1.10;;;;;;;12.16;100.00;94171.69;5036501;28;20205;-70
2023/10/27 01:09:40;;;;;;;1.70;1.30;;;;;;;12.27;100.00;94167.41;5034644;28;20220;-70
2023/10/27 01:12:07;;;;;;;1.67;1.07;;;;;;;12.20;100.00;94164.13;5033910;28;20209;-70
2023/10/27 01:14:33;;;;;;;2.10;1.20;;;;;;;12.13;100.00;94166.13;5035382;28;20229;-70
2023/10/27 01:17:00;;;;;;;5.33;1.20;;;;;;;12.06;100.00;94169.94;5035114;28;20221;-70
2023/10/27 01:19:26;;;;;;;3.87;1.17;;;;;;;12.16;100.00;94168.28;5034496;28;20205;-70
2023/10/27 01:21:53;;;;;;;3.50;1.30;;;;;;;12.15;100.00;94163.22;5034760;28;20219;-70
2023/10/27 01:24:22;;;;;;;2.17;1.37;;;;;;;12.30;100.00;94165.09;5035298;28;20778;-70
2023/10/27 01:26:49;;;;;;;2.17;1.10;;;;;;;12.18;100.00;94153.78;5034780;28;20201;-70
2023/10/27 01:29:16;;;;;;;2.20;1.33;;;;;;;12.13;100.00;94160.00;5034692;28;20201;-70
2023/10/27 01:31:42;;;;;;;5.10;1.53;;;;;;;12.17;100.00;94162.75;5034982;28;20219;-70
2023/10/27 01:34:09;;;;;;;1.83;1.20;;;;;;;12.17;100.00;94161.97;5034274;28;20232;-70
2023/10/27 01:36:36;;;;;;;3.17;1.30;;;;;;;12.20;100.00;94169.41;5035274;28;20677;-70
2023/10/27 01:39:03;;;;;;;2.70;1.73;;;;;;;12.13;100.00;94166.13;5034460;28;20217;-70
2023/10/27 01:41:30;;;;;;;4.40;1.30;;;;;;;12.26;100.00;94163.97;5034583;28;20200;-70
2023/10/27 01:43:57;;;;;;;1.67;1.50;;;;;;;12.09;100.00;94161.53;5034320;28;20207;-70
2023/10/27 01:46:23;;;;;;;2.43;1.13;;;;;;;12.10;100.00;94156.00;5035745;28;20835;-70
2023/10/27 01:48:50;;;;;;;2.30;1.20;;;;;;;12.13;100.00;94158.19;5034503;28;20201;-70
2023/10/27 01:51:16;;;;;;;2.17;1.20;;;;;;;12.16;100.00;94154.28;5034716;28;20560;-70
2023/10/27 01:53:43;;;;;;;3.70;1.27;;;;;;;12.17;100.00;94157.47;5034618;28;20219;-70
2023/10/27 01:56:10;;;;;;;1.97;1.10;;;;;;;12.18;100.00;94155.63;5034901;28;20247;-70
2023/10/27 01:58:40;;;;;;;3.03;1.00;;;;;;;12.27;100.00;94155.03;5035159;28;20235;-70
2023/10/27 02:01:07;;;;;;;1.40;1.20;;;;;;;12.11;100.00;94159.47;5034773;28;20205;-70
2023/10/27 02:03:33;;;;;;;3.37;1.80;;;;;;;12.17;100.00;94157.47;5035398;28;20209;-70
2023/10/27 02:06:00;;;;;;;4.03;1.50;;;;;;;12.22;100.00;94154.91;5033540;28;20233;-70
2023/10/27 02:08:26;;;;;;;2.10;1.13;;;;;;;12.21;100.00;94157.81;5035324;28;20667;-70
2023/10/27 02:10:53;;;;;;;1.87;1.20;;;;;;;12.20;100.00;94151.72;5033663;28;20320;-70
2023/10/27 02:13:19;;;;;;;2.83;1.20;;;;;;;12.20;100.00;94151.72;5038000;28;20231;-70
2023/10/27 02:15:47;;;;;;;1.70;0.80;;;;;;;12.26;100.00;94157.91;5038786;28;20224;-70
2023/10/27 02:18:14;;;;;;;2.37;0.97;;;;;;;12.07;100.00;94166.25;5038648;28;20232;-70
2023/10/27 02:20:40;;;;;;;1.60;0.90;;;;;;;12.08;100.00;94162.56;5037463;28;20982;-70
2023/10/27 02:23:07;;;;;;;2.70;1.17;;;;;;;12.13;100.00;94160.00;5038505;28;20209;-70
2023/10/27 02:25:33;;;;;;;3.57;1.30;;;;;;;12.16;100.00;94153.22;5038553;28;20235;-70
2023/10/27 02:28:00;;;;;;;1.13;0.87;;;;;;;12.19;100.00;94154.59;5037745;28;21000;-70
2023/10/27 02:30:26;;;;;;;2.27;1.10;;;;;;;12.06;100.00;94152.25;5037993;28;20209;-70
2023/10/27 02:32:54;;;;;;;1.63;1.10;;;;;;;12.30;100.00;94157.16;5038464;28;20228;-70
2023/10/27 02:35:21;;;;;;;1.13;0.90;;;;;;;12.18;100.00;94159.09;5037922;28;20865;-70
2023/10/27 02:37:47;;;;;;;3.10;1.47;;;;;;;12.25;100.00;94154.44;5037509;28;20229;-70
2023/10/27 02:40:14;;;;;;;4.43;1.57;;;;;;;12.26;100.00;94150.78;5038599;28;20209;-70
2023/10/27 02:42:40;;;;;;;2.90;1.20;;;;;;;12.27;100.00;94152.38;5037437;28;20205;-70
2023/10/27 02:45:08;;;;;;;2.43;1.50;;;;;;;12.33;100.00;94145.34;5038231;28;20225;-70
2023/10/27 02:47:35;;;;;;;1.67;1.10;;;;;;;12.29;100.00;94137.09;5038179;28;20288;-70
2023/10/27 02:50:03;;;;;;;3.17;1.50;;;;;;;12.43;100.00;94138.38;5035977;28;20205;-70
2023/10/27 02:52:29;;;;;;;5.90;1.30;;;;;;;12.28;100.00;94134.69;5037126;28;20198;-70
2023/10/27 02:54:56;;;;;;;2.30;1.33;;;;;;;12.29;100.00;94134.44;5037687;28;20225;-70
2023/10/27 02:57:22;;;;;;;1.57;1.03;;;;;;;12.26;100.00;94132.28;5037900;28;20221;-70
2023/10/27 02:59:49;;;;;;;3.07;1.43;;;;;;;12.35;100.00;94132.72;5037779;28;20209;-70
2023/10/27 03:02:15;;;;;;;1.73;1.10;;;;;;;12.45;100.00;94130.25;5037107;28;20675;-70
2023/10/27 03:04:42;;;;;;;2.30;1.27;;;;;;;12.40;100.00;94122.25;5038025;28;20232;-70
2023/10/27 03:07:10;;;;;;;2.23;1.20;;;;;;;12.47;100.00;94126.28;5037942;28;20201;-70
2023/10/27 03:09:37;;;;;;;3.17;1.03;;;;;;;12.42;100.00;94128.06;5038169;28;20209;-70
2023/10/27 03:12:04;;;;;;;5.40;1.43;;;;;;;12.38;100.00;94122.44;5036899;28;20216;-70
2023/10/27 03:14:30;;;;;;;4.00;1.30;;;;;;;12.32;100.00;94118.16;5038040;28;20730;-70
2023/10/27 03:16:57;;;;;;;2.40;1.20;;;;;;;12.32;100.00;94123.44;5036126;28;20205;-70
2023/10/27 03:19:23;;;;;;;2.90;1.30;;;;;;;12.43;100.00;94117.25;5038511;28;20576;-70
2023/10/27 03:21:50;;;;;;;2.00;1.03;;;;;;;12.35;100.00;94122.94;5036896;28;20205;-70
2023/10/27 03:24:17;;;;;;;1.70;1.13;;;;;;;12.44;100.00;94116.22;5037411;28;20228;-70
2023/10/27 03:26:44;;;;;;;2.03;1.30;;;;;;;12.26;100.00;94121.72;5037399;28;20212;-70
2023/10/27 03:29:10;;;;;;;1.90;1.13;;;;;;;12.20;100.00;94120.03;5037925;28;20205;-70
2023/10/27 03:31:37;;;;;;;1.73;1.10;;;;;;;12.10;100.00;94120.91;5037139;28;20213;-70
2023/10/27 03:34:03;;;;;;;1.83;0.90;;;;;;;12.21;100.00;94123.47;5036458;28;20244;-70
2023/10/27 03:36:30;;;;;;;2.63;1.20;;;;;;;12.16;100.00;94119.97;5038369;28;20208;-70
2023/10/27 03:38:56;;;;;;;5.13;1.47;;;;;;;12.08;100.00;94126.41;5036059;28;20698;-70
2023/10/27 03:41:24;;;;;;;2.63;1.27;;;;;;;12.21;100.00;94121.63;5036930;28;20205;-70
2023/10/27 03:43:51;;;;;;;2.07;1.57;;;;;;;12.16;100.00;94112.03;5036675;28;20205;-70
2023/10/27 03:46:17;;;;;;;1.73;1.17;;;;;;;12.16;100.00;94106.75;5037662;28;20205;-70
2023/10/27 03:48:44;;;;;;;2.53;1.53;;;;;;;12.20;100.00;94109.47;5036342;28;20228;-70
2023/10/27 03:51:11;;;;;;;3.20;1.63;;;;;;;12.15;100.00;94105.16;5037422;28;20243;-70
2023/10/27 03:53:37;;;;;;;2.47;1.67;;;;;;;12.11;100.00;94098.75;5036416;28;20233;-70
2023/10/27 03:56:04;;;;;;;4.63;2.47;;;;;;;12.10;100.00;94095.28;5036532;28;20586;-70
2023/10/27 03:58:32;;;;;;;6.00;1.83;;;;;;;12.29;100.00;94097.47;5036642;28;20260;-70
2023/10/27 04:00:59;;;;;;;5.73;1.97;;;;;;;12.15;100.00;94095.38;5036582;28;20667;-70
2023/10/27 04:03:25;;;;;;;3.57;1.73;;;;;;;12.14;100.00;94096.41;5036969;28;20201;-70
2023/10/27 04:05:52;;;;;;;4.63;2.03;;;;;;;12.16;100.00;94108.34;5036646;28;20225;-70
2023/10/27 04:08:18;;;;;;;5.33;2.40;;;;;;;12.21;100.00;94108.44;5036523;28;20698;-70
2023/10/27 04:10:45;;;;;;;13.13;5.10;;;;;;;12.23;100.00;94103.72;5035941;28;20205;-70
2023/10/27 04:13:12;;;;;;;10.37;4.87;;;;;;;12.21;100.00;94100.50;5036699;28;20202;-70
2023/10/27 04:15:40;;;;;;;6.03;2.87;;;;;;;12.21;100.00;94100.50;5036102;28;20715;-70
2023/10/27 04:18:06;;;;;;;12.03;3.87;;;;;;;12.11;100.00;94106.66;5036263;28;20712;-70
2023/10/27 04:20:33;;;;;;;6.43;1.97;;;;;;;12.13;100.00;94107.22;5036224;28;20658;-70
2023/10/27 04:22:59;;;;;;;4.20;1.70;;;;;;;12.16;100.00;94112.03;5036219;28;20209;-70
2023/10/27 04:25:27;;;;;;;3.50;1.63;;;;;;;12.12;100.00;94110.88;5036076;28;20231;-70
2023/10/27 04:27:55;;;;;;;1.80;1.37;;;;;;;12.05;100.00;94112.88;5036771;28;20205;-70
2023/10/27 04:30:21;;;;;;;2.63;1.70;;;;;;;12.04;100.00;94109.47;5035585;28;20205;-70
2023/10/27 04:32:49;;;;;;;4.43;1.93;;;;;;;12.23;100.00;94114.28;5036570;28;20205;-70
2023/10/27 04:35:17;;;;;;;5.30;1.63;;;;;;;12.04;100.00;94125.28;5035470;28;20228;-70
2023/10/27 04:37:44;;;;;;;2.47;1.60;;;;;;;11.95;100.00;94118.78;5035987;28;20286;-70
2023/10/27 04:40:11;;;;;;;4.40;1.83;;;;;;;12.10;100.00;94113.78;5035515;28;20231;-70
2023/10/27 04:42:38;;;;;;;5.17;2.80;;;;;;;11.99;100.00;94113.81;5036637;28;20262;-70
2023/10/27 04:45:05;;;;;;;5.23;2.70;;;;;;;12.15;100.00;94105.16;5036101;28;20226;-70
2023/10/27 04:47:31;;;;;;;4.13;2.50;;;;;;;12.06;100.00;94107.38;5036028;28;20209;-70
2023/10/27 04:50:00;;;;;;;8.73;3.83;;;;;;;12.20;100.00;94112.09;5035401;28;20208;-70
2023/10/27 04:52:27;;;;;;;12.77;6.33;;;;;;;12.13;100.00;94108.03;5036345;28;20684;-70
2023/10/27 04:54:54;;;;;;;14.60;5.97;;;;;;;12.06;100.00;94111.84;5035537;28;20717;-70
2023/10/27 04:57:20;;;;;;;10.37;4.83;;;;;;;12.07;100.00;94103.69;5036441;28;20209;-70
2023/10/27 04:59:47;;;;;;;10.07;4.80;;;;;;;12.11;100.00;94104.03;5035187;28;20679;-70
2023/10/27 05:02:13;;;;;;;8.30;3.73;;;;;;;12.20;100.00;94106.03;5035836;28;20224;-70
2023/10/27 05:04:40;;;;;;;8.33;3.57;;;;;;;12.19;100.00;94121.09;5035501;28;20236;-70
2023/10/27 05:07:08;;;;;;;15.10;5.50;;;;;;;12.38;100.00;94114.53;5035562;28;21407;-70
2023/10/27 05:09:35;;;;;;;25.33;8.97;;;;;;;12.20;100.00;94125.31;5035980;28;20739;-70
2023/10/27 05:12:02;;;;;;;11.30;7.07;;;;;;;12.32;100.00;94123.44;5034890;28;20201;-70
2023/10/27 05:14:29;;;;;;;9.63;6.17;;;;;;;12.23;100.00;94116.94;5036086;28;20227;-70
2023/10/27 05:16:56;;;;;;;7.37;3.67;;;;;;;12.24;100.00;94121.19;5034961;28;20577;-70
2023/10/27 05:19:22;;;;;;;8.60;3.40;;;;;;;12.16;100.00;94118.09;5035366;28;20577;-70
2023/10/27 05:21:49;;;;;;;7.57;3.40;;;;;;;12.25;100.00;94122.75;5034825;28;20205;-70
2023/10/27 05:24:17;;;;;;;11.30;4.73;;;;;;;12.35;100.00;94119.50;5036196;28;20227;-70
2023/10/27 05:26:43;;;;;;;4.37;2.90;;;;;;;12.14;100.00;94116.75;5035554;28;20239;-69
2023/10/27 05:29:10;;;;;;;8.20;3.03;;;;;;;12.11;100.00;94115.38;5035854;28;20197;-69
2023/10/27 05:31:36;;;;;;;8.00;4.23;;;;;;;12.14;100.00;94119.38;5035288;28;20271;-69
2023/10/27 05:34:03;;;;;;;11.60;2.37;;;;;;;12.11;100.00;94114.59;5034731;28;20237;-69
2023/10/27 05:36:29;;;;;;;5.17;2.43;;;;;;;12.01;100.00;94119.69;5035422;28;20205;-71
2023/10/27 05:38:56;;;;;;;4.63;2.37;;;;;;;12.03;100.00;94112.31;5035064;28;20571;-69
2023/10/27 05:41:24;;;;;;;4.17;2.30;;;;;;;12.28;100.00;94111.75;5035186;28;20201;-69
2023/10/27 05:43:51;;;;;;;3.60;1.97;;;;;;;12.23;100.00;94108.19;5034910;28;20201;-69
2023/10/27 05:46:18;;;;;;;6.67;3.63;;;;;;;12.19;100.00;94107.06;5036725;28;20217;-70
2023/10/27 05:48:45;;;;;;;14.47;7.37;;;;;;;12.26;100.00;94105.88;5038773;28;20197;-70
2023/10/27 05:51:12;;;;;;;10.77;4.23;;;;;;;12.15;100.00;94102.50;5038955;28;20205;-71
2023/10/27 05:53:39;;;;;;;11.20;4.90;;;;;;;12.27;100.00;94107.50;5039866;28;20663;-69
2023/10/27 05:56:05;;;;;;;13.97;5.87;;;;;;;12.34;100.00;94113.41;5039960;28;20229;-69
2023/10/27 05:58:34;;;;;;;17.53;4.63;;;;;;;12.52;100.00;94123.75;5038625;28;20726;-70
2023/10/27 06:01:01;;;;;;;7.20;2.00;;;;;;;12.28;100.00;94126.75;5038134;28;20213;-71
2023/10/27 06:03:28;;;;;;;8.60;3.60;;;;;;;12.35;100.00;94125.56;5039821;28;20676;-69
2023/10/27 06:05:54;;;;;;;6.93;3.30;;;;;;;12.36;100.00;94131.69;5038235;28;20265;-70
2023/10/27 06:08:21;;;;;;;10.40;3.57;;;;;;;12.37;100.00;94126.16;5039955;28;20205;-71
2023/10/27 06:10:47;;;;;;;11.57;3.17;;;;;;;12.40;100.00;94135.44;5039866;28;20219;-70
2023/10/27 06:13:14;;;;;;;12.87;5.00;;;;;;;12.21;100.00;94126.91;5038239;28;20734;-70
2023/10/27 06:15:42;;;;;;;7.90;2.90;;;;;;;12.56;100.00;94138.06;5038953;28;20220;-70
2023/10/27 06:18:08;;;;;;;5.00;1.90;;;;;;;12.41;100.00;94145.75;5038543;28;20259;-69
2023/10/27 06:20:35;;;;;;;7.73;2.23;;;;;;;12.46;100.00;94143.22;5038403;28;20205;-70
2023/10/27 06:23:02;;;;;;;8.93;3.90;;;;;;;12.39;100.00;94145.19;5038671;28;20590;-70
2023/10/27 06:25:28;;;;;;;3.33;1.93;;;;;;;12.47;100.00;94144.00;5038878;28;20221;-69
2023/10/27 06:27:55;;;;;;;11.63;2.17;;;;;;;12.27;100.00;94141.81;5038102;28;20197;-71
2023/10/27 06:30:23;;;;;;;9.33;4.43;;;;;;;12.25;100.00;94143.88;5039274;28;20228;-70
2023/10/27 06:32:50;;;;;;;6.73;3.00;;;;;;;12.30;100.00;94141.34;5038238;28;20205;-70
2023/10/27 06:35:17;;;;;;;2.67;1.47;;;;;;;12.40;100.00;94156.56;5037896;28;20237;-71
2023/10/27 06:37:43;;;;;;;4.23;2.00;;;;;;;12.22;100.00;94144.38;5039299;28;20208;-70
2023/10/27 06:40:11;;;;;;;6.27;2.77;;;;;;;12.33;100.00;94151.44;5038391;28;20225;-71
2023/10/27 06:42:37;;;;;;;7.37;2.63;;;;;;;12.21;100.00;94152.53;5037626;28;20774;-70
2023/10/27 06:45:04;;;;;;;6.37;2.43;;;;;;;12.43;100.00;94151.59;5037993;28;20225;-70
2023/10/27 06:47:31;;;;;;;9.77;2.67;;;;;;;12.28;100.00;94148.72;5039337;28;21559;-70
2023/10/27 06:50:01;;;;;;;5.13;2.73;;;;;;;12.50;100.00;94162.00;5037260;28;20201;-69
2023/10/27 06:52:27;;;;;;;4.60;1.97;;;;;;;12.14;100.00;94161.63;5038058;28;20745;-69
2023/10/27 06:54:54;;;;;;;2.73;1.33;;;;;;;12.45;100.00;94169.88;5037708;28;20217;-70
2023/10/27 06:57:20;;;;;;;3.73;2.07;;;;;;;12.38;100.00;94169.97;5038317;28;20197;-70
2023/10/27 06:59:47;;;;;;;2.03;1.60;;;;;;;12.31;100.00;94173.84;5037420;28;20229;-69
2023/10/27 07:02:14;;;;;;;4.77;1.60;;;;;;;12.48;100.00;94180.72;5038195;28;20196;-70
2023/10/27 07:04:40;;;;;;;7.10;2.23;;;;;;;12.34;100.00;94184.72;5036659;28;20282;-70
2023/10/27 07:07:09;;;;;;;2.23;1.33;;;;;;;12.49;100.00;94182.34;5037754;28;20590;-69
2023/10/27 07:09:35;;;;;;;5.23;2.23;;;;;;;12.39;100.00;94187.44;5037477;28;20229;-71
2023/10/27 07:12:03;;;;;;;4.10;1.50;;;;;;;12.33;100.00;94184.94;5036929;28;20213;-71
2023/10/27 07:14:30;;;;;;;2.10;1.40;;;;;;;12.21;100.00;94200.84;5037412;28;20221;-69
2023/10/27 07:16:59;;;;;;;1.87;0.97;;;;;;;12.14;100.00;94203.88;5037158;28;20383;-69
2023/10/27 07:19:26;;;;;;;2.40;1.17;;;;;;;12.32;100.00;94209.75;5037028;28;20228;-71
2023/10/27 07:21:52;;;;;;;3.37;1.40;;;;;;;12.30;100.00;94211.84;5036458;28;20201;-70
2023/10/27 07:24:20;;;;;;;4.00;1.30;;;;;;;12.47;100.00;94228.53;5037160;28;20224;-70
2023/10/27 07:26:47;;;;;;;1.77;1.00;;;;;;;12.38;100.00;94228.09;5037065;28;20768;-70
2023/10/27 07:29:15;;;;;;;1.37;1.10;;;;;;;12.33;100.00;94224.56;5037171;28;20193;-69
2023/10/27 07:31:41;;;;;;;2.53;1.33;;;;;;;12.52;100.00;94239.19;5037200;28;20228;-69
2023/10/27 07:34:08;;;;;;;4.27;1.33;;;;;;;12.63;100.00;94239.13;5036060;28;20233;-69
2023/10/27 07:36:34;;;;;;;1.57;1.20;;;;;;;12.39;100.00;94245.53;5037478;28;20201;-69
2023/10/27 07:39:01;;;;;;;2.23;0.87;;;;;;;12.41;100.00;94251.41;5036950;28;20221;-69
2023/10/27 07:41:29;;;;;;;1.40;1.10;;;;;;;12.61;100.00;94248.34;5036699;28;20611;-69
2023/10/27 07:43:55;;;;;;;1.30;1.10;;;;;;;12.74;100.00;94248.84;5037355;28;20343;-70
2023/10/27 07:46:22;;;;;;;1.50;1.00;;;;;;;12.72;100.00;94250.91;5036287;28;20671;-69
2023/10/27 07:48:48;;;;;;;2.73;1.00;;;;;;;12.85;100.00;94248.78;5036665;28;20201;-69
2023/10/27 07:51:15;;;;;;;1.73;0.97;;;;;;;12.88;100.00;94253.63;5036191;28;20656;-70
2023/10/27 07:53:41;;;;;;;2.47;0.90;;;;;;;12.84;100.00;94259.56;5036705;28;20733;-69
2023/10/27 07:56:08;;;;;;;4.17;1.10;;;;;;;12.84;100.00;94259.56;5035965;28;20392;-70
2023/10/27 07:58:36;;;;;;;0.77;0.70;;;;;;;13.12;100.00;94265.66;5037382;28;20594;-69
2023/10/27 08:01:05;;;;;;;1.93;0.90;;;;;;;13.11;100.00;94271.19;5035667;28;20659;-70
2023/10/27 08:03:33;;;;;;;1.60;1.00;;;;;;;13.20;100.00;94275.03;5036780;28;20254;-70
2023/10/27 08:06:00;;;;;;;1.97;1.00;;;;;;;12.97;100.00;94280.44;5035673;28;20261;-70
2023/10/27 08:08:26;;;;;;;0.87;0.67;;;;;;;13.00;100.00;94290.56;5036244;28;20282;-70
2023/10/27 08:10:53;;;;;;;0.97;0.73;;;;;;;13.11;100.00;94284.41;5034888;28;20201;-70
2023/10/27 08:13:20;;;;;;;1.07;0.70;;;;;;;12.93;100.00;94289.91;5036630;28;20201;-70
2023/10/27 08:15:49;;;;;;;1.27;0.70;;;;;;;13.31;100.00;94303.25;5035918;28;20228;-69
2023/10/27 08:18:15;;;;;;;0.57;0.57;;;;;;;13.01;100.00;94308.84;5035982;28;20227;-70
2023/10/27 08:20:42;;;;;;;3.07;1.80;;;;;;;12.89;100.00;94320.50;5035664;28;20221;-71
2023/10/27 08:23:09;;;;;;;0.73;0.50;;;;;;;13.00;100.00;94317.78;5036588;28;20216;-70
2023/10/27 08:25:36;;;;;;;1.03;0.67;;;;;;;12.93;100.00;94326.91;5036581;28;20225;-69
2023/10/27 08:28:03;;;;;;;1.53;0.60;;;;;;;12.97;100.00;94325.38;5036573;28;20755;-71
2023/10/27 08:30:30;;;;;;;1.03;0.60;;;;;;;12.97;100.00;94328.84;5036507;28;20201;-70
2023/10/27 08:32:58;;;;;;;0.47;0.47;;;;;;;13.16;100.00;94337.38;5036173;28;20220;-70
2023/10/27 08:35:24;;;;;;;0.70;0.60;;;;;;;13.16;100.00;94334.72;5036199;28;20233;-70
2023/10/27 08:37:51;;;;;;;1.07;0.70;;;;;;;13.17;100.00;94341.63;5036746;28;20580;-70
2023/10/27 08:40:18;;;;;;;0.63;0.40;;;;;;;13.31;100.00;94340.28;5036959;28;20225;-71
2023/10/27 08:42:49;;;;;;;0.47;0.40;;;;;;;13.36;100.00;94340.38;5034900;28;20198;-70
2023/10/27 08:45:16;;;;;;;0.30;0.30;;;;;;;13.44;100.00;94331.00;5035918;28;20231;-69
2023/10/27 08:47:42;;;;;;;0.63;0.50;;;;;;;13.39;100.00;94335.41;5035760;28;20255;-71
2023/10/27 08:50:11;;;;;;;0.60;0.50;;;;;;;13.87;100.00;94333.00;5035752;28;20672;-69
2023/10/27 08:52:39;;;;;;;0.40;0.40;;;;;;;13.49;100.00;94335.56;5035416;28;20209;-69
2023/10/27 08:55:08;;;;;;;0.77;0.33;;;;;;;13.79;100.00;94342.13;5035390;28;20705;-69
2023/10/27 08:57:35;;;;;;;0.70;0.70;;;;;;;13.53;100.00;94349.91;5035097;28;20209;-69
2023/10/27 09:00:02;;;;;;;0.30;0.30;;;;;;;13.59;100.00;94347.13;5036584;28;20517;-69
2023/10/27 09:02:30;;;;;;;0.40;0.40;;;;;;;13.72;100.00;94349.47;5034792;28;20208;-71
2023/10/27 09:05:02;;;;;;;0.37;0.37;;;;;;;13.90;100.00;94341.25;5034722;28;20225;-70
2023/10/27 09:07:30;;;;;;;1.83;0.40;;;;;;;13.91;100.00;94353.44;5033066;28;20729;-71
2023/10/27 09:09:57;;;;;;;0.30;0.30;;;;;;;13.48;100.00;94347.22;5036690;28;20205;-72
2023/10/27 09:12:26;;;;;;;0.30;0.30;;;;;;;13.52;100.00;94335.88;5034727;28;20208;-70
2023/10/27 09:15:04;;;;;;;0.30;0.30;;;;;;;13.51;100.00;94336.94;5036178;28;20314;-71
2023/10/27 09:17:32;;;;;;;0.37;0.30;;;;;;;13.35;100.00;94334.25;5035496;28;20770;-72
2023/10/27 09:20:06;;;;;;;0.20;0.20;;;;;;;13.23;100.00;94327.47;5034934;28;20331;-71
2023/10/27 09:22:35;;;;;;;0.50;0.50;;;;;;;13.06;100.00;94321.31;5034023;28;20208;-72
2023/10/27 09:25:20;;;;;;;0.40;0.40;;;;;;;13.06;100.00;94332.72;5035522;28;20217;-71
2023/10/27 09:27:47;;;;;;;7.70;1.23;;;;;;;12.97;100.00;94338.59;5035247;28;20212;-71
2023/10/27 09:30:14;;;;;;;0.53;0.50;;;;;;;13.09;100.00;94350.75;5035939;28;20205;-71
2023/10/27 09:32:42;;;;;;;0.30;0.30;;;;;;;12.99;100.00;94352.41;5035291;28;20213;-69
2023/10/27 09:35:10;;;;;;;0.50;0.50;;;;;;;13.18;100.00;94356.47;5034654;28;20634;-72
2023/10/27 09:37:38;;;;;;;0.33;0.33;;;;;;;13.13;100.00;94348.44;5035882;28;20219;-71
2023/10/27 09:40:08;;;;;;;0.40;0.40;;;;;;;13.25;100.00;94354.44;5035522;28;21086;-69
2023/10/27 09:42:37;;;;;;;0.60;0.60;;;;;;;13.46;100.00;94344.78;5035275;28;20205;-70
2023/10/27 09:45:07;;;;;;;0.40;0.40;;;;;;;13.89;100.00;94352.88;5034792;28;20229;-71
2023/10/27 09:47:35;;;;;;;1.60;0.53;;;;;;;14.15;100.00;94360.19;5034983;28;20205;-70
2023/10/27 09:50:06;;;;;;;0.30;0.30;;;;;;;14.17;100.00;94363.41;5034095;28;20826;-70
2023/10/27 09:52:34;;;;;;;1.33;0.40;;;;;;;14.04;100.00;94364.50;5034401;28;20205;-71
2023/10/27 09:55:03;;;;;;;2.33;0.77;;;;;;;14.04;100.00;94376.94;5034501;28;21096;-71
2023/10/27 09:57:30;;;;;;;0.40;0.40;;;;;;;13.83;100.00;94372.38;5035212;28;20209;-71
2023/10/27 09:59:59;;;;;;;0.67;0.40;;;;;;;14.01;100.00;94377.41;5034345;28;20318;-70
2023/10/27 10:02:26;;;;;;;0.53;0.43;;;;;;;13.96;100.00;94376.53;5034596;28;20212;-70
2023/10/27 10:05:03;;;;;;;3.70;0.57;;;;;;;14.24;100.00;94378.06;5034800;28;20220;-71
2023/10/27 10:07:34;;;;;;;0.80;0.40;;;;;;;14.35;100.00;94374.50;5034394;28;20201;-70
2023/10/27 10:10:33;;;;;;;0.67;0.60;;;;;;;14.32;100.00;94377.66;5034243;28;20231;-71
2023/10/27 10:13:12;;;;;;;1.20;0.30;;;;;;;14.37;100.00;94382.19;5035443;28;20221;-71
2023/10/27 10:15:40;;;;;;;1.80;0.53;;;;;;;14.57;100.00;94377.19;5035602;28;20225;-71
2023/10/27 10:18:07;;;;;;;0.43;0.40;;;;;;;14.62;100.00;94382.56;5034377;28;20279;-72
2023/10/27 10:20:58;;;;;;;0.73;0.50;;;;;;;14.98;100.00;94380.88;5034808;28;20232;-72
2023/10/27 10:23:55;;;;;;;0.30;0.30;;;;;;;14.86;100.00;94374.91;5035246;28;21190;-71
2023/10/27 10:26:21;;;;;;;1.93;0.60;;;;;;;14.65;100.00;94385.53;5034191;28;20202;-71
2023/10/27 10:28:49;;;;;;;1.30;0.57;;;;;;;14.88;100.00;94388.72;5034080;28;20224;-70
2023/10/27 10:31:24;;;;;;;0.63;0.40;;;;;;;15.07;100.00;94402.44;5034395;28;20232;-70
2023/10/27 10:33:52;;;;;;;3.80;0.43;;;;;;;15.16;100.00;94407.09;5037299;28;20305;-71
2023/10/27 10:36:26;;;;;;;0.40;0.40;;;;;;;15.60;100.00;94396.16;5038717;28;20197;-70
2023/10/27 10:39:00;;;;;;;0.70;0.30;;;;;;;15.53;100.00;94397.41;5038096;28;20201;-72
2023/10/27 10:42:01;;;;;;;0.40;0.40;;;;;;;15.31;100.00;94404.59;5038104;28;20721;-70
2023/10/27 10:44:32;;;;;;;0.63;0.50;;;;;;;15.28;100.00;94399.81;5038195;28;20703;-70
2023/10/27 10:47:04;;;;;;;1.23;0.40;;;;;;;14.89;100.00;94400.94;5038124;28;20197;-71
2023/10/27 10:49:31;;;;;;;1.90;0.87;;;;;;;14.66;100.00;94403.81;5038121;28;21160;-71
2023/10/27 10:52:00;;;;;;;0.50;0.50;;;;;;;14.76;100.00;94400.50;5037478;28;20237;-71
2023/10/27 10:54:28;;;;;;;0.93;0.60;;;;;;;14.62;100.00;94401.09;5038708;28;20225;-70
2023/10/27 10:57:04;;;;;;;1.13;0.45;;;;;;;14.75;100.00;94397.06;5036824;28;20217;-71
2023/10/27 10:59:32;;;;;;;1.13;0.40;;;;;;;14.80;100.00;94389.16;5037264;28;20205;-71
2023/10/27 11:02:00;;;;;;;0.60;0.40;;;;;;;15.04;100.00;94393.13;5036656;28;20205;-70
2023/10/27 11:04:31;;;;;;;1.37;0.40;;;;;;;15.08;100.00;94390.81;5037346;28;20220;-71
2023/10/27 11:07:03;;;;;;;0.77;0.45;;;;;;;15.24;100.00;94382.00;5036810;28;20201;-71
2023/10/27 11:09:31;;;;;;;3.10;0.57;;;;;;;14.92;100.00;94381.06;5037967;28;20232;-71
2023/10/27 11:11:58;;;;;;;0.40;0.40;;;;;;;14.83;100.00;94378.06;5037260;28;20729;-70
2023/10/27 11:14:24;;;;;;;0.40;0.40;;;;;;;15.05;100.00;94384.13;5038097;28;20221;-70
2023/10/27 11:17:01;;;;;;;1.52;0.63;;;;;;;15.36;100.00;94386.09;5038061;28;20233;-71
2023/10/27 11:19:27;;;;;;;0.30;0.30;;;;;;;15.24;100.00;94394.19;5038136;28;20223;-70
2023/10/27 11:21:57;;;;;;;0.40;0.40;;;;;;;15.28;100.00;94391.84;5036471;28;20214;-70
2023/10/27 11:24:24;;;;;;;0.20;0.20;;;;;;;15.04;100.00;94409.06;5036301;28;20228;-69
2023/10/27 11:26:51;;;;;;;0.40;0.40;;;;;;;15.07;100.00;94399.81;5037393;28;20290;-70